createdAt,value
2018-06-10T00:00:46.016Z,65.50
2018-06-10T00:03:14.786Z,65.60
2018-06-10T00:05:43.537Z,66.50
2018-06-10T00:08:12.234Z,67.80
2018-06-10T00:10:40.911Z,68.90
2018-06-10T00:13:09.591Z,69.20
2018-06-10T00:15:38.280Z,69.30
2018-06-10T00:18:07.003Z,69.10
2018-06-10T00:20:35.668Z,69.30
2018-06-10T00:23:04.415Z,69.20
2018-06-10T00:25:33.110Z,68.90
2018-06-10T00:28:01.819Z,68.90
2018-06-10T00:30:30.548Z,69.50
2018-06-10T00:32:59.225Z,69.60
2018-06-10T00:35:27.930Z,70.10
2018-06-10T00:37:57.416Z,70.30
2018-06-10T00:40:26.069Z,70.30
2018-06-10T00:42:54.778Z,70.00
2018-06-10T00:45:23.478Z,70.20
2018-06-10T00:47:52.203Z,70.20
2018-06-10T00:50:20.925Z,69.90
2018-06-10T00:52:49.658Z,70.10
2018-06-10T00:57:46.824Z,70.10
2018-06-10T01:00:15.534Z,70.00
2018-06-10T01:02:44.215Z,70.40
2018-06-10T01:05:13.037Z,70.60
2018-06-10T01:07:42.262Z,70.50
2018-06-10T01:10:10.956Z,70.60
2018-06-10T01:12:39.643Z,71.20
2018-06-10T01:15:08.374Z,71.20
2018-06-10T01:17:37.092Z,71.40
2018-06-10T01:20:05.810Z,71.50
2018-06-10T01:22:34.527Z,71.70
2018-06-10T01:27:31.780Z,71.00
2018-06-10T01:32:28.866Z,71.80
2018-06-10T01:39:54.434Z,73.20
2018-06-10T01:42:23.110Z,73.30
2018-06-10T01:44:51.838Z,73.40
2018-06-10T01:47:20.521Z,73.60
2018-06-10T01:49:49.293Z,73.40
2018-06-10T01:52:17.965Z,73.30
2018-06-10T01:54:46.673Z,73.30
2018-06-10T01:57:15.345Z,73.70
2018-06-10T01:59:44.705Z,73.90
2018-06-10T02:02:13.422Z,74.50
2018-06-10T02:04:42.102Z,75.10
2018-06-10T02:07:10.774Z,76.20
2018-06-10T02:09:39.469Z,76.50
2018-06-10T02:14:36.609Z,77.90
2018-06-10T02:17:05.310Z,78.20
2018-06-10T02:19:33.989Z,78.70
2018-06-10T02:22:02.670Z,79.00
2018-06-10T02:24:31.400Z,79.30
2018-06-10T02:27:00.093Z,79.50
2018-06-10T02:29:28.860Z,79.50
2018-06-10T02:31:57.543Z,79.80
2018-06-10T02:34:26.266Z,79.90
2018-06-10T02:36:54.943Z,80.60
2018-06-10T02:39:23.650Z,80.90
2018-06-10T02:41:52.349Z,81.40
2018-06-10T02:44:21.046Z,81.60
2018-06-10T02:46:49.718Z,81.80
2018-06-10T02:49:18.430Z,82.60
2018-06-10T02:51:47.086Z,82.60
2018-06-10T02:54:15.785Z,83.00
2018-06-10T02:56:44.490Z,83.40
2018-06-10T03:01:41.766Z,84.10
2018-06-10T03:04:10.427Z,84.30
2018-06-10T03:06:39.778Z,84.70
2018-06-10T03:09:08.455Z,85.10
2018-06-10T03:11:37.159Z,85.40
2018-06-10T03:14:05.867Z,85.70
2018-06-10T03:16:34.562Z,85.90
2018-06-10T03:19:03.273Z,86.40
2018-06-10T03:21:31.953Z,86.70
2018-06-10T03:24:01.450Z,87.10
2018-06-10T03:26:30.174Z,87.20
2018-06-10T03:28:58.826Z,87.80
2018-06-10T03:31:27.538Z,87.30
2018-06-10T03:33:56.197Z,87.70
2018-06-10T03:36:24.894Z,87.80
2018-06-10T03:38:53.550Z,88.00
2018-06-10T03:41:22.223Z,88.10
2018-06-10T03:43:50.902Z,88.20
2018-06-10T03:46:19.621Z,88.00
2018-06-10T03:48:48.309Z,84.90
2018-06-10T03:51:17.000Z,87.70
2018-06-10T03:53:45.683Z,87.70
2018-06-10T03:56:14.372Z,87.80
2018-06-10T03:58:43.057Z,87.60
2018-06-10T04:01:11.757Z,87.30
2018-06-10T04:03:40.473Z,86.90
2018-06-10T04:08:38.458Z,86.30
2018-06-10T04:13:35.535Z,85.70
2018-06-10T04:16:04.205Z,85.40
2018-06-10T04:18:32.925Z,85.10
2018-06-10T04:21:01.622Z,84.80
2018-06-10T04:23:30.312Z,84.60
2018-06-10T04:28:27.497Z,84.20
2018-06-10T04:30:56.217Z,84.40
2018-06-10T04:33:24.870Z,84.90
2018-06-10T04:35:54.434Z,85.10
2018-06-10T04:38:23.137Z,85.20
2018-06-10T04:40:51.888Z,85.10
2018-06-10T04:43:20.621Z,84.50
2018-06-10T04:45:49.314Z,84.50
2018-06-10T04:48:18.000Z,84.00
2018-06-10T04:50:46.678Z,83.80
2018-06-10T04:55:43.838Z,83.70
2018-06-10T04:58:13.006Z,83.70
2018-06-10T05:00:41.690Z,83.70
2018-06-10T05:03:10.358Z,83.50
2018-06-10T05:05:39.091Z,83.40
2018-06-10T05:08:07.813Z,83.00
2018-06-10T05:10:36.503Z,83.10
2018-06-10T05:13:05.178Z,83.00
2018-06-10T05:15:33.865Z,83.00
2018-06-10T05:18:02.562Z,82.80
2018-06-10T05:22:59.694Z,82.10
2018-06-10T05:25:28.361Z,82.00
2018-06-10T05:27:57.046Z,81.90
2018-06-10T05:30:25.835Z,81.90
2018-06-10T05:32:54.533Z,81.50
2018-06-10T05:35:23.238Z,81.60
2018-06-10T05:37:51.913Z,81.80
2018-06-10T05:40:20.629Z,82.50
2018-06-10T05:42:49.425Z,82.10
2018-06-10T05:45:18.094Z,81.70
2018-06-10T05:47:46.778Z,81.90
2018-06-10T05:50:15.478Z,82.30
2018-06-10T05:52:44.146Z,82.50
2018-06-10T05:55:12.877Z,82.50
2018-06-10T05:57:41.560Z,82.90
2018-06-10T06:00:10.309Z,83.40
2018-06-10T06:02:39.397Z,83.60
2018-06-10T06:05:08.282Z,83.90
2018-06-10T06:07:37.013Z,83.80
2018-06-10T06:12:34.122Z,83.80
2018-06-10T06:15:02.810Z,84.30
2018-06-10T06:17:31.483Z,83.50
2018-06-10T06:20:00.173Z,82.80
2018-06-10T06:22:28.932Z,82.40
2018-06-10T06:24:57.576Z,81.90
2018-06-10T06:27:26.314Z,81.70
2018-06-10T06:29:54.965Z,81.00
2018-06-10T06:32:23.665Z,80.60
2018-06-10T06:39:49.188Z,78.40
2018-06-10T06:42:17.988Z,77.10
2018-06-10T06:47:15.243Z,75.10
2018-06-10T06:49:43.932Z,74.60
2018-06-10T06:52:12.602Z,73.90
2018-06-10T06:54:41.268Z,73.20
2018-06-10T06:57:10.533Z,72.40
2018-06-10T06:59:39.190Z,71.70
2018-06-10T07:02:07.857Z,70.80
2018-06-10T07:04:36.531Z,69.70
2018-06-10T07:07:05.268Z,70.10
2018-06-10T07:09:34.500Z,68.10
2018-06-10T07:12:03.166Z,68.70
2018-06-10T07:17:00.337Z,68.10
2018-06-10T07:19:29.005Z,66.80
2018-06-10T07:21:57.689Z,67.30
2018-06-10T07:24:26.382Z,65.10
2018-06-10T07:29:24.167Z,65.70
2018-06-10T07:31:52.829Z,66.10
2018-06-10T07:34:21.539Z,67.00
2018-06-10T07:36:50.213Z,67.40
2018-06-10T07:41:47.281Z,69.20
2018-06-10T07:44:15.976Z,69.80
2018-06-10T07:46:44.674Z,70.20
2018-06-10T07:49:13.941Z,70.50
2018-06-10T07:54:11.054Z,70.10
2018-06-10T07:56:39.758Z,70.60
2018-06-10T07:59:08.482Z,70.60
2018-06-10T08:04:05.619Z,70.90
2018-06-10T08:06:34.371Z,71.20
2018-06-10T08:09:03.271Z,71.60
2018-06-10T08:11:31.986Z,71.70
2018-06-10T08:14:00.677Z,71.90
2018-06-10T08:16:29.374Z,71.40
2018-06-10T08:18:58.045Z,71.40
2018-06-10T08:21:26.747Z,70.60
2018-06-10T08:23:55.437Z,70.60
2018-06-10T08:26:24.127Z,70.40
2018-06-10T08:28:52.798Z,70.00
2018-06-10T08:31:21.482Z,69.60
2018-06-10T08:33:50.223Z,69.30
2018-06-10T08:38:47.329Z,69.20
2018-06-10T08:43:44.442Z,68.50
2018-06-10T08:48:41.537Z,68.90
2018-06-10T08:51:10.225Z,69.20
2018-06-10T08:53:38.981Z,69.40
2018-06-10T08:56:07.646Z,69.10
2018-06-10T08:58:38.715Z,68.50
2018-06-10T09:01:07.421Z,68.50
2018-06-10T09:03:36.144Z,69.00
2018-06-10T09:06:04.830Z,69.60
2018-06-10T09:08:33.649Z,69.50
2018-06-10T09:11:02.339Z,69.90
2018-06-10T09:13:31.031Z,70.60
2018-06-10T09:15:59.712Z,70.50
2018-06-10T09:20:56.813Z,71.90
2018-06-10T09:23:25.542Z,73.50
2018-06-10T09:25:54.262Z,74.70
2018-06-10T09:28:22.938Z,75.90
2018-06-10T09:30:51.657Z,76.30
2018-06-10T09:33:21.057Z,77.40
2018-06-10T09:35:49.797Z,77.60
2018-06-10T09:38:18.456Z,77.70
2018-06-10T09:40:47.383Z,79.00
2018-06-10T09:43:16.098Z,79.60
2018-06-10T09:45:44.889Z,79.20
2018-06-10T09:48:13.605Z,79.40
2018-06-10T09:50:42.393Z,78.60
2018-06-10T09:53:11.278Z,80.10
2018-06-10T09:55:40.268Z,80.70
2018-06-10T09:58:08.978Z,79.60
2018-06-10T10:00:37.717Z,81.00
2018-06-10T10:03:06.460Z,79.30
2018-06-10T10:05:35.246Z,79.00
2018-06-10T10:08:04.028Z,80.30
2018-06-10T10:10:32.689Z,79.90
2018-06-10T10:13:01.582Z,80.00
2018-06-10T10:15:31.328Z,80.40
2018-06-10T10:18:00.094Z,81.50
2018-06-10T10:22:57.973Z,82.40
2018-06-10T10:25:26.735Z,82.60
2018-06-10T10:27:55.420Z,82.80
2018-06-10T10:30:24.730Z,83.00
2018-06-10T10:32:53.493Z,82.90
2018-06-10T10:35:23.217Z,82.70
2018-06-10T10:37:51.943Z,85.90
2018-06-10T10:40:20.782Z,85.30
2018-06-10T10:45:17.868Z,85.70
2018-06-10T10:47:46.645Z,85.10
2018-06-10T10:50:15.339Z,84.00
2018-06-10T10:52:44.114Z,84.90
2018-06-10T10:55:13.042Z,84.50
2018-06-10T10:57:41.762Z,85.50
2018-06-10T11:02:38.939Z,83.80
2018-06-10T11:07:36.169Z,83.40
2018-06-10T11:10:04.856Z,82.20
2018-06-10T11:12:33.699Z,81.40
2018-06-10T11:15:02.581Z,80.90
2018-06-10T11:17:31.518Z,81.30
2018-06-10T11:20:00.217Z,83.80
2018-06-10T11:22:28.930Z,81.00
2018-06-10T11:24:57.682Z,83.30
2018-06-10T11:27:26.405Z,82.00
2018-06-10T11:29:55.084Z,79.80
2018-06-10T11:32:23.785Z,78.40
2018-06-10T11:37:20.906Z,76.10
2018-06-10T11:39:49.649Z,76.60
2018-06-10T11:42:18.379Z,76.30
2018-06-10T11:44:47.692Z,75.80
2018-06-10T11:47:16.381Z,74.00
2018-06-10T11:49:45.621Z,73.40
2018-06-10T11:52:14.444Z,72.30
2018-06-10T11:54:43.849Z,71.70
2018-06-10T11:57:13.565Z,73.10
2018-06-10T11:59:42.612Z,71.50
2018-06-10T12:02:11.381Z,71.00
2018-06-10T12:04:40.193Z,69.80
2018-06-10T12:09:37.409Z,67.40
2018-06-10T12:12:06.098Z,64.20
2018-06-10T12:14:34.813Z,62.40
2018-06-10T12:17:04.797Z,60.30
2018-06-10T12:22:02.877Z,58.50
2018-06-10T12:24:31.684Z,57.90
2018-06-10T12:27:00.321Z,59.50
2018-06-10T12:29:29.133Z,59.30
2018-06-10T12:31:57.884Z,59.10
2018-06-10T12:34:26.597Z,58.70
2018-06-10T12:36:55.282Z,59.30
2018-06-10T12:39:24.001Z,59.60
2018-06-10T12:41:52.654Z,59.40
2018-06-10T12:44:21.440Z,59.30
2018-06-10T12:46:50.156Z,58.70
2018-06-10T12:49:19.010Z,59.60
2018-06-10T12:54:16.075Z,59.70
2018-06-10T12:56:44.765Z,60.70
2018-06-10T13:07:20.339Z,61.70
2018-06-10T13:09:49.056Z,60.60
2018-06-10T13:12:17.724Z,60.50
2018-06-10T13:14:46.434Z,60.70
2018-06-10T13:17:15.621Z,61.60
2018-06-10T13:19:44.350Z,61.30
2018-06-10T13:22:13.035Z,60.60
2018-06-10T13:24:41.756Z,61.10
2018-06-10T13:29:38.869Z,63.10
2018-06-10T13:32:08.742Z,65.40
2018-06-10T13:34:37.453Z,66.40
2018-06-10T13:37:06.182Z,66.10
2018-06-10T13:39:35.593Z,68.80
2018-06-10T13:42:04.264Z,62.80
2018-06-10T13:44:32.985Z,62.70
2018-06-10T13:47:01.633Z,61.60
2018-06-10T13:49:30.336Z,61.70
2018-06-10T13:51:59.095Z,61.70
2018-06-10T13:54:27.827Z,61.60
2018-06-10T13:56:56.850Z,60.90
2018-06-10T13:59:25.601Z,60.90
2018-06-10T14:01:54.215Z,60.40
2018-06-10T14:06:51.332Z,59.60
2018-06-10T14:09:20.207Z,59.30
2018-06-10T14:11:48.864Z,59.00
2018-06-10T14:14:17.557Z,59.10
2018-06-10T14:16:46.257Z,60.00
2018-06-10T14:19:14.990Z,60.80
2018-06-10T14:21:43.671Z,60.90
2018-06-10T14:26:40.774Z,60.50
2018-06-10T14:29:09.503Z,60.50
2018-06-10T14:31:38.287Z,61.20
2018-06-10T14:34:06.977Z,62.20
2018-06-10T14:36:36.101Z,61.90
2018-06-10T14:41:35.165Z,61.80
2018-06-10T14:44:04.332Z,62.30
2018-06-10T14:46:32.952Z,62.20
2018-06-10T14:49:01.707Z,62.60
2018-06-10T14:51:30.468Z,61.90
2018-06-10T14:56:27.634Z,62.00
2018-06-10T14:58:56.316Z,62.50
2018-06-10T15:01:25.201Z,61.50
2018-06-10T15:03:53.868Z,62.40
2018-06-10T15:08:50.893Z,63.10
2018-06-10T15:11:19.601Z,62.50
2018-06-10T15:13:48.321Z,62.70
2018-06-10T15:16:17.057Z,62.70
2018-06-10T15:18:45.758Z,62.40
2018-06-10T15:23:42.909Z,63.30
2018-06-10T15:26:11.609Z,63.10
2018-06-10T15:28:40.325Z,63.10
2018-06-10T15:31:09.094Z,63.60
2018-06-10T15:33:37.769Z,63.80
2018-06-10T15:41:03.261Z,63.80
2018-06-10T15:43:31.932Z,64.10
2018-06-10T15:46:00.603Z,64.30
2018-06-10T15:48:29.346Z,64.30
2018-06-10T15:50:58.168Z,64.00
2018-06-10T15:53:26.845Z,64.40
2018-06-10T15:55:55.558Z,61.90
2018-06-10T15:58:24.206Z,60.70
2018-06-10T16:00:52.894Z,60.70
2018-06-10T16:03:21.626Z,61.20
2018-06-10T16:05:50.298Z,60.70
2018-06-10T16:08:18.972Z,61.10
2018-06-10T16:10:47.673Z,61.00
2018-06-10T16:15:44.774Z,60.80
2018-06-10T16:20:41.939Z,60.20
2018-06-10T16:23:10.692Z,60.00
2018-06-10T16:25:39.368Z,59.70
2018-06-10T16:28:08.124Z,60.70
2018-06-10T16:33:06.747Z,60.90
2018-06-10T16:35:35.474Z,60.10
2018-06-10T16:40:32.889Z,60.90
2018-06-10T16:43:01.705Z,61.30
2018-06-10T16:47:58.923Z,61.40
2018-06-10T16:50:27.641Z,61.90
2018-06-10T16:55:24.811Z,61.80
2018-06-10T16:57:53.554Z,61.30
2018-06-10T17:00:22.367Z,61.50
2018-06-10T17:02:51.017Z,61.00
2018-06-10T17:05:19.715Z,61.50
2018-06-10T17:07:48.385Z,62.20
2018-06-10T17:10:17.120Z,63.00
2018-06-10T17:12:45.863Z,63.30
2018-06-10T17:15:15.234Z,63.60
2018-06-10T17:17:43.913Z,63.80
2018-06-10T17:20:12.633Z,61.80
2018-06-10T17:22:41.346Z,64.10
2018-06-10T17:30:07.000Z,64.40
2018-06-10T17:32:35.630Z,64.50
2018-06-10T17:35:04.359Z,64.60
2018-06-10T17:37:33.122Z,64.70
2018-06-10T17:40:01.818Z,64.80
2018-06-10T17:42:30.517Z,65.00
2018-06-10T17:47:27.692Z,65.20
2018-06-10T17:49:56.364Z,65.40
2018-06-10T17:52:25.117Z,65.50
2018-06-10T17:54:53.774Z,65.40
2018-06-10T17:57:22.476Z,65.30
2018-06-10T17:59:51.145Z,65.00
2018-06-10T18:02:19.825Z,64.90
2018-06-10T18:04:49.593Z,64.80
2018-06-10T18:07:18.346Z,65.10
2018-06-10T18:09:47.056Z,65.10
2018-06-10T18:12:15.735Z,65.60
2018-06-10T18:14:44.417Z,65.70
2018-06-10T18:17:13.112Z,65.50
2018-06-10T18:19:41.809Z,65.40
2018-06-10T18:22:10.494Z,65.20
2018-06-10T18:24:39.275Z,65.20
2018-06-10T18:27:08.017Z,65.60
2018-06-10T18:29:36.706Z,66.00
2018-06-10T18:32:05.410Z,65.90
2018-06-10T18:34:34.167Z,65.80
2018-06-10T18:37:02.840Z,65.70
2018-06-10T18:41:59.932Z,65.30
2018-06-10T18:44:28.593Z,65.60
2018-06-10T18:49:25.698Z,66.10
2018-06-10T18:51:54.366Z,66.60
2018-06-10T18:54:23.101Z,66.30
2018-06-10T18:56:51.789Z,66.90
2018-06-10T18:59:20.469Z,67.30
2018-06-10T19:01:49.211Z,67.50
2018-06-10T19:04:18.000Z,67.90
2018-06-10T19:06:46.735Z,67.90
2018-06-10T19:09:15.381Z,67.90
2018-06-10T19:11:44.627Z,68.10
2018-06-10T19:14:13.365Z,68.50
2018-06-10T19:16:42.123Z,68.70
2018-06-10T19:19:10.807Z,68.70
2018-06-10T19:21:39.513Z,69.50
2018-06-10T19:24:09.001Z,69.50
2018-06-10T19:26:37.677Z,69.50
2018-06-10T19:29:06.336Z,69.60
2018-06-10T19:31:35.436Z,70.80
2018-06-10T19:34:04.148Z,69.90
2018-06-10T19:36:32.878Z,70.40
2018-06-10T19:41:29.961Z,69.70
2018-06-10T19:43:58.711Z,69.90
2018-06-10T19:48:55.767Z,70.20
2018-06-10T19:53:52.912Z,70.70
2018-06-10T19:56:21.585Z,70.90
2018-06-10T19:58:50.259Z,71.30
2018-06-10T20:01:18.943Z,72.00
2018-06-10T20:03:47.667Z,72.00
2018-06-10T20:06:17.487Z,71.40
2018-06-10T20:11:14.574Z,72.40
2018-06-10T20:13:43.333Z,73.00
2018-06-10T20:16:12.035Z,73.30
2018-06-10T20:18:40.722Z,73.40
2018-06-10T20:23:38.118Z,73.80
2018-06-10T20:26:06.929Z,73.70
2018-06-10T20:31:04.314Z,73.90
2018-06-10T20:33:33.307Z,73.90
2018-06-10T20:36:02.397Z,73.90
2018-06-10T20:38:31.480Z,74.10
2018-06-10T20:41:00.373Z,74.50
2018-06-10T20:43:29.078Z,74.70
2018-06-10T20:45:57.856Z,74.90
2018-06-10T20:48:26.664Z,75.10
2018-06-10T20:50:55.350Z,75.40
2018-06-10T20:53:24.110Z,75.60
2018-06-10T21:00:49.767Z,76.30
2018-06-10T21:03:18.441Z,76.40
2018-06-10T21:08:15.598Z,76.50
2018-06-10T21:10:44.359Z,76.70
2018-06-10T21:15:41.431Z,76.90
2018-06-10T21:18:10.149Z,77.50
2018-06-10T21:20:38.821Z,77.20
2018-06-10T21:23:07.533Z,77.50
2018-06-10T21:25:36.266Z,77.60
2018-06-10T21:30:33.454Z,78.00
2018-06-10T21:35:30.585Z,78.20
2018-06-10T21:37:59.396Z,78.50
2018-06-10T21:45:25.062Z,79.30
2018-06-10T21:47:53.780Z,79.70
2018-06-10T21:52:50.949Z,79.70
2018-06-10T21:55:19.670Z,79.90
2018-06-10T21:57:48.395Z,80.00
2018-06-10T22:00:25.345Z,80.60
2018-06-10T22:07:50.842Z,80.60
2018-06-10T22:10:19.618Z,81.00
2018-06-10T22:12:48.345Z,81.10
2018-06-10T22:15:17.072Z,81.20
2018-06-10T22:17:45.819Z,81.10
2018-06-10T22:20:14.501Z,81.10
2018-06-10T22:22:43.237Z,81.00
2018-06-10T22:25:11.936Z,81.00
2018-06-10T22:27:40.657Z,81.10
2018-06-10T22:30:09.333Z,80.90
2018-06-10T22:32:38.074Z,80.90
2018-06-10T22:35:06.850Z,81.00
2018-06-10T22:37:35.561Z,81.20
2018-06-10T22:40:04.303Z,81.20
2018-06-10T22:42:33.019Z,81.40
2018-06-10T22:45:01.792Z,81.40
2018-06-10T22:47:30.523Z,81.60
2018-06-10T22:49:59.217Z,81.50
2018-06-10T22:52:27.909Z,81.70
2018-06-10T22:54:56.617Z,81.60
2018-06-10T22:57:25.330Z,81.80
2018-06-10T22:59:54.024Z,81.90
2018-06-10T23:02:22.725Z,81.80
2018-06-10T23:04:51.442Z,81.70
2018-06-10T23:07:20.175Z,81.80
2018-06-10T23:09:48.842Z,81.80
2018-06-10T23:12:17.573Z,81.90
2018-06-10T23:14:46.285Z,82.10
2018-06-10T23:17:14.994Z,82.30
2018-06-10T23:19:43.677Z,82.60
2018-06-10T23:36:31.043Z,83.60
2018-06-10T23:38:59.729Z,83.70
2018-06-10T23:41:28.477Z,83.80
2018-06-10T23:43:58.123Z,83.60
2018-06-10T23:46:26.797Z,83.40
2018-06-10T23:48:55.526Z,83.90
2018-06-10T23:51:24.213Z,83.10
2018-06-10T23:53:52.939Z,83.20
2018-06-10T23:56:21.665Z,83.20
2018-06-10T23:58:50.408Z,83.20
